sensor_id;sensor_type;location;lat;lon;timestamp;P1;durP1;ratioP1;P2;durP2;ratioP2
52614;SDS011;38508;53.158;6.614;2022-12-20T00:00:14;113.47;;;107.30;;
52614;SDS011;38508;53.158;6.614;2022-12-20T00:02:40;112.90;;;106.78;;
52614;SDS011;38508;53.158;6.614;2022-12-20T00:05:05;112.10;;;106.07;;
52614;SDS011;38508;53.158;6.614;2022-12-20T00:07:31;108.60;;;102.95;;
52614;SDS011;38508;53.158;6.614;2022-12-20T00:09:57;108.85;;;102.80;;
52614;SDS011;38508;53.158;6.614;2022-12-20T00:12:23;107.70;;;101.65;;
52614;SDS011;38508;53.158;6.614;2022-12-20T00:14:48;105.43;;;99.88;;
52614;SDS011;38508;53.158;6.614;2022-12-20T00:17:14;102.30;;;96.93;;
52614;SDS011;38508;53.158;6.614;2022-12-20T00:19:42;104.60;;;99.10;;
52614;SDS011;38508;53.158;6.614;2022-12-20T00:22:08;101.30;;;95.80;;
52614;SDS011;38508;53.158;6.614;2022-12-20T00:24:34;99.90;;;94.57;;
52614;SDS011;38508;53.158;6.614;2022-12-20T00:27:00;100.22;;;94.85;;
52614;SDS011;38508;53.158;6.614;2022-12-20T00:29:25;91.45;;;86.47;;
52614;SDS011;38508;53.158;6.614;2022-12-20T00:31:51;89.22;;;84.20;;
52614;SDS011;38508;53.158;6.614;2022-12-20T00:34:17;84.72;;;79.82;;
52614;SDS011;38508;53.158;6.614;2022-12-20T00:36:42;82.03;;;77.75;;
52614;SDS011;38508;53.158;6.614;2022-12-20T00:39:08;79.38;;;75.20;;
52614;SDS011;38508;53.158;6.614;2022-12-20T00:41:34;72.93;;;69.03;;
52614;SDS011;38508;53.158;6.614;2022-12-20T00:44:00;71.57;;;67.65;;
52614;SDS011;38508;53.158;6.614;2022-12-20T00:46:27;68.22;;;64.40;;
52614;SDS011;38508;53.158;6.614;2022-12-20T00:48:53;66.65;;;62.95;;
52614;SDS011;38508;53.158;6.614;2022-12-20T00:51:21;59.47;;;55.83;;
52614;SDS011;38508;53.158;6.614;2022-12-20T00:53:49;60.83;;;57.25;;
52614;SDS011;38508;53.158;6.614;2022-12-20T00:56:14;62.28;;;58.65;;
52614;SDS011;38508;53.158;6.614;2022-12-20T00:58:41;59.00;;;55.70;;
52614;SDS011;38508;53.158;6.614;2022-12-20T01:01:15;53.60;;;50.50;;
52614;SDS011;38508;53.158;6.614;2022-12-20T01:03:51;48.72;;;46.00;;
52614;SDS011;38508;53.158;6.614;2022-12-20T01:06:18;50.50;;;47.53;;
52614;SDS011;38508;53.158;6.614;2022-12-20T01:08:44;49.13;;;46.15;;
52614;SDS011;38508;53.158;6.614;2022-12-20T01:11:12;52.13;;;49.20;;
52614;SDS011;38508;53.158;6.614;2022-12-20T01:13:46;49.40;;;46.50;;
52614;SDS011;38508;53.158;6.614;2022-12-20T01:16:15;49.08;;;46.25;;
52614;SDS011;38508;53.158;6.614;2022-12-20T01:18:41;44.90;;;42.20;;
52614;SDS011;38508;53.158;6.614;2022-12-20T01:21:08;48.38;;;45.28;;
52614;SDS011;38508;53.158;6.614;2022-12-20T01:23:36;46.92;;;43.97;;
52614;SDS011;38508;53.158;6.614;2022-12-20T01:26:03;45.05;;;42.35;;
52614;SDS011;38508;53.158;6.614;2022-12-20T01:28:30;44.55;;;41.97;;
52614;SDS011;38508;53.158;6.614;2022-12-20T01:30:56;45.08;;;42.22;;
52614;SDS011;38508;53.158;6.614;2022-12-20T01:33:22;44.50;;;41.90;;
52614;SDS011;38508;53.158;6.614;2022-12-20T01:36:01;44.28;;;41.67;;
52614;SDS011;38508;53.158;6.614;2022-12-20T01:38:29;44.08;;;41.58;;
52614;SDS011;38508;53.158;6.614;2022-12-20T01:40:55;46.05;;;42.83;;
52614;SDS011;38508;53.158;6.614;2022-12-20T01:43:21;45.65;;;42.83;;
52614;SDS011;38508;53.158;6.614;2022-12-20T01:45:48;45.65;;;42.95;;
52614;SDS011;38508;53.158;6.614;2022-12-20T01:48:14;41.05;;;38.53;;
52614;SDS011;38508;53.158;6.614;2022-12-20T01:50:45;40.78;;;38.33;;
52614;SDS011;38508;53.158;6.614;2022-12-20T01:53:12;40.35;;;38.05;;
52614;SDS011;38508;53.158;6.614;2022-12-20T01:55:40;40.15;;;37.85;;
52614;SDS011;38508;53.158;6.614;2022-12-20T01:58:10;40.63;;;38.15;;
52614;SDS011;38508;53.158;6.614;2022-12-20T02:00:38;36.80;;;34.50;;
52614;SDS011;38508;53.158;6.614;2022-12-20T02:03:05;35.30;;;33.10;;
52614;SDS011;38508;53.158;6.614;2022-12-20T02:05:38;36.92;;;34.60;;
52614;SDS011;38508;53.158;6.614;2022-12-20T02:08:05;36.45;;;34.08;;
52614;SDS011;38508;53.158;6.614;2022-12-20T02:13:17;39.20;;;36.90;;
52614;SDS011;38508;53.158;6.614;2022-12-20T02:15:54;37.50;;;35.22;;
52614;SDS011;38508;53.158;6.614;2022-12-20T02:18:26;37.40;;;35.05;;
52614;SDS011;38508;53.158;6.614;2022-12-20T02:23:43;33.30;;;31.30;;
52614;SDS011;38508;53.158;6.614;2022-12-20T02:32:29;37.67;;;35.45;;
52614;SDS011;38508;53.158;6.614;2022-12-20T02:34:40;39.67;;;37.22;;
52614;SDS011;38508;53.158;6.614;2022-12-20T02:37:06;39.83;;;37.25;;
52614;SDS011;38508;53.158;6.614;2022-12-20T02:39:33;39.30;;;36.63;;
52614;SDS011;38508;53.158;6.614;2022-12-20T02:42:05;37.55;;;35.30;;
52614;SDS011;38508;53.158;6.614;2022-12-20T02:44:34;40.90;;;38.60;;
52614;SDS011;38508;53.158;6.614;2022-12-20T02:47:30;42.00;;;39.50;;
52614;SDS011;38508;53.158;6.614;2022-12-20T02:50:01;40.42;;;38.20;;
52614;SDS011;38508;53.158;6.614;2022-12-20T02:52:28;39.58;;;37.22;;
52614;SDS011;38508;53.158;6.614;2022-12-20T02:54:55;44.17;;;41.45;;
52614;SDS011;38508;53.158;6.614;2022-12-20T02:57:31;47.17;;;44.47;;
52614;SDS011;38508;53.158;6.614;2022-12-20T03:00:05;53.25;;;50.20;;
52614;SDS011;38508;53.158;6.614;2022-12-20T03:02:34;54.95;;;51.83;;
52614;SDS011;38508;53.158;6.614;2022-12-20T03:05:19;63.40;;;59.80;;
52614;SDS011;38508;53.158;6.614;2022-12-20T03:07:47;66.65;;;62.95;;
52614;SDS011;38508;53.158;6.614;2022-12-20T03:10:13;73.63;;;69.72;;
52614;SDS011;38508;53.158;6.614;2022-12-20T03:12:39;74.45;;;70.45;;
52614;SDS011;38508;53.158;6.614;2022-12-20T03:15:04;77.20;;;73.28;;
52614;SDS011;38508;53.158;6.614;2022-12-20T03:17:30;79.78;;;75.72;;
52614;SDS011;38508;53.158;6.614;2022-12-20T03:19:56;87.45;;;82.47;;
52614;SDS011;38508;53.158;6.614;2022-12-20T03:22:22;90.80;;;86.00;;
52614;SDS011;38508;53.158;6.614;2022-12-20T03:24:48;91.95;;;87.35;;
52614;SDS011;38508;53.158;6.614;2022-12-20T03:27:14;91.30;;;86.75;;
52614;SDS011;38508;53.158;6.614;2022-12-20T03:29:40;91.80;;;86.80;;
52614;SDS011;38508;53.158;6.614;2022-12-20T03:32:06;92.50;;;87.72;;
52614;SDS011;38508;53.158;6.614;2022-12-20T03:34:32;95.63;;;90.63;;
52614;SDS011;38508;53.158;6.614;2022-12-20T03:36:57;95.18;;;90.07;;
52614;SDS011;38508;53.158;6.614;2022-12-20T03:39:23;94.60;;;89.60;;
52614;SDS011;38508;53.158;6.614;2022-12-20T03:41:49;94.95;;;89.82;;
52614;SDS011;38508;53.158;6.614;2022-12-20T03:44:14;95.88;;;90.32;;
52614;SDS011;38508;53.158;6.614;2022-12-20T03:46:40;95.00;;;89.97;;
52614;SDS011;38508;53.158;6.614;2022-12-20T03:49:06;95.35;;;90.55;;
52614;SDS011;38508;53.158;6.614;2022-12-20T03:51:31;97.53;;;92.30;;
52614;SDS011;38508;53.158;6.614;2022-12-20T03:53:57;96.68;;;91.68;;
52614;SDS011;38508;53.158;6.614;2022-12-20T03:56:23;94.95;;;90.10;;
52614;SDS011;38508;53.158;6.614;2022-12-20T03:58:48;100.78;;;95.45;;
52614;SDS011;38508;53.158;6.614;2022-12-20T04:03:43;101.13;;;95.75;;
52614;SDS011;38508;53.158;6.614;2022-12-20T04:06:08;99.32;;;93.88;;
52614;SDS011;38508;53.158;6.614;2022-12-20T04:08:34;95.68;;;91.05;;
52614;SDS011;38508;53.158;6.614;2022-12-20T04:11:00;96.15;;;91.15;;
52614;SDS011;38508;53.158;6.614;2022-12-20T04:13:41;101.47;;;96.32;;
52614;SDS011;38508;53.158;6.614;2022-12-20T04:16:13;93.45;;;88.55;;
52614;SDS011;38508;53.158;6.614;2022-12-20T04:18:40;103.43;;;98.03;;
52614;SDS011;38508;53.158;6.614;2022-12-20T04:21:06;104.60;;;99.22;;
52614;SDS011;38508;53.158;6.614;2022-12-20T04:23:33;106.32;;;100.90;;
52614;SDS011;38508;53.158;6.614;2022-12-20T04:26:01;106.88;;;101.25;;
52614;SDS011;38508;53.158;6.614;2022-12-20T04:28:28;105.25;;;99.82;;
52614;SDS011;38508;53.158;6.614;2022-12-20T04:30:54;101.82;;;96.30;;
52614;SDS011;38508;53.158;6.614;2022-12-20T04:33:20;103.95;;;98.55;;
52614;SDS011;38508;53.158;6.614;2022-12-20T04:35:47;104.97;;;99.68;;
52614;SDS011;38508;53.158;6.614;2022-12-20T04:38:12;96.07;;;91.18;;
52614;SDS011;38508;53.158;6.614;2022-12-20T04:40:39;97.03;;;92.05;;
52614;SDS011;38508;53.158;6.614;2022-12-20T04:43:05;100.65;;;95.45;;
52614;SDS011;38508;53.158;6.614;2022-12-20T04:45:30;93.70;;;88.80;;
52614;SDS011;38508;53.158;6.614;2022-12-20T04:47:56;95.07;;;90.00;;
52614;SDS011;38508;53.158;6.614;2022-12-20T04:50:21;100.70;;;94.90;;
52614;SDS011;38508;53.158;6.614;2022-12-20T04:52:47;102.10;;;96.80;;
52614;SDS011;38508;53.158;6.614;2022-12-20T04:55:35;104.30;;;98.70;;
52614;SDS011;38508;53.158;6.614;2022-12-20T04:58:02;104.03;;;98.30;;
52614;SDS011;38508;53.158;6.614;2022-12-20T05:00:28;101.57;;;96.45;;
52614;SDS011;38508;53.158;6.614;2022-12-20T05:02:53;102.40;;;97.10;;
52614;SDS011;38508;53.158;6.614;2022-12-20T05:05:19;100.20;;;95.10;;
52614;SDS011;38508;53.158;6.614;2022-12-20T05:07:45;98.72;;;93.30;;
52614;SDS011;38508;53.158;6.614;2022-12-20T05:10:10;101.78;;;96.57;;
52614;SDS011;38508;53.158;6.614;2022-12-20T05:12:36;99.20;;;93.80;;
52614;SDS011;38508;53.158;6.614;2022-12-20T05:15:02;100.00;;;94.63;;
52614;SDS011;38508;53.158;6.614;2022-12-20T05:17:28;97.70;;;92.60;;
52614;SDS011;38508;53.158;6.614;2022-12-20T05:19:54;95.85;;;90.93;;
52614;SDS011;38508;53.158;6.614;2022-12-20T05:22:19;93.25;;;88.55;;
52614;SDS011;38508;53.158;6.614;2022-12-20T05:25:04;96.10;;;91.20;;
52614;SDS011;38508;53.158;6.614;2022-12-20T05:27:48;99.68;;;94.53;;
52614;SDS011;38508;53.158;6.614;2022-12-20T05:30:14;97.55;;;92.47;;
52614;SDS011;38508;53.158;6.614;2022-12-20T05:32:40;98.97;;;93.55;;
52614;SDS011;38508;53.158;6.614;2022-12-20T05:35:06;98.10;;;92.80;;
52614;SDS011;38508;53.158;6.614;2022-12-20T05:37:32;97.68;;;92.53;;
52614;SDS011;38508;53.158;6.614;2022-12-20T05:39:58;95.10;;;90.10;;
52614;SDS011;38508;53.158;6.614;2022-12-20T05:42:23;95.38;;;90.47;;
52614;SDS011;38508;53.158;6.614;2022-12-20T05:44:49;88.95;;;84.05;;
52614;SDS011;38508;53.158;6.614;2022-12-20T05:47:15;93.55;;;88.60;;
52614;SDS011;38508;53.158;6.614;2022-12-20T05:49:41;84.13;;;79.45;;
52614;SDS011;38508;53.158;6.614;2022-12-20T05:52:06;79.88;;;75.75;;
52614;SDS011;38508;53.158;6.614;2022-12-20T05:54:32;79.85;;;75.45;;
52614;SDS011;38508;53.158;6.614;2022-12-20T05:56:58;78.20;;;73.63;;
52614;SDS011;38508;53.158;6.614;2022-12-20T05:59:24;83.75;;;79.45;;
52614;SDS011;38508;53.158;6.614;2022-12-20T06:01:49;75.47;;;71.28;;
52614;SDS011;38508;53.158;6.614;2022-12-20T06:04:15;80.97;;;76.40;;
52614;SDS011;38508;53.158;6.614;2022-12-20T06:06:41;74.53;;;70.47;;
52614;SDS011;38508;53.158;6.614;2022-12-20T06:09:06;75.53;;;71.57;;
52614;SDS011;38508;53.158;6.614;2022-12-20T06:11:32;72.10;;;68.38;;
52614;SDS011;38508;53.158;6.614;2022-12-20T06:13:58;68.95;;;65.18;;
52614;SDS011;38508;53.158;6.614;2022-12-20T06:16:23;72.47;;;68.57;;
52614;SDS011;38508;53.158;6.614;2022-12-20T06:18:49;73.05;;;69.15;;
52614;SDS011;38508;53.158;6.614;2022-12-20T06:21:15;64.75;;;61.33;;
52614;SDS011;38508;53.158;6.614;2022-12-20T06:23:42;66.55;;;62.75;;
52614;SDS011;38508;53.158;6.614;2022-12-20T06:26:08;62.47;;;59.28;;
52614;SDS011;38508;53.158;6.614;2022-12-20T06:28:34;63.10;;;59.70;;
52614;SDS011;38508;53.158;6.614;2022-12-20T06:31:06;63.35;;;59.80;;
52614;SDS011;38508;53.158;6.614;2022-12-20T06:33:34;58.15;;;55.03;;
52614;SDS011;38508;53.158;6.614;2022-12-20T06:36:00;64.75;;;61.47;;
52614;SDS011;38508;53.158;6.614;2022-12-20T06:38:26;69.30;;;65.45;;
52614;SDS011;38508;53.158;6.614;2022-12-20T06:40:52;69.80;;;66.05;;
52614;SDS011;38508;53.158;6.614;2022-12-20T06:43:18;66.78;;;62.92;;
52614;SDS011;38508;53.158;6.614;2022-12-20T06:45:44;64.80;;;61.20;;
52614;SDS011;38508;53.158;6.614;2022-12-20T06:48:10;64.63;;;61.22;;
52614;SDS011;38508;53.158;6.614;2022-12-20T06:50:36;63.45;;;59.80;;
52614;SDS011;38508;53.158;6.614;2022-12-20T06:53:03;60.35;;;57.10;;
52614;SDS011;38508;53.158;6.614;2022-12-20T06:55:29;68.88;;;65.18;;
52614;SDS011;38508;53.158;6.614;2022-12-20T06:57:54;73.10;;;69.30;;
52614;SDS011;38508;53.158;6.614;2022-12-20T07:00:20;86.45;;;81.72;;
52614;SDS011;38508;53.158;6.614;2022-12-20T07:02:47;89.75;;;85.25;;
52614;SDS011;38508;53.158;6.614;2022-12-20T07:05:13;90.85;;;85.85;;
52614;SDS011;38508;53.158;6.614;2022-12-20T07:07:38;97.13;;;92.03;;
52614;SDS011;38508;53.158;6.614;2022-12-20T07:10:06;103.22;;;97.93;;
52614;SDS011;38508;53.158;6.614;2022-12-20T07:12:32;103.55;;;98.10;;
52614;SDS011;38508;53.158;6.614;2022-12-20T07:14:58;109.70;;;103.82;;
52614;SDS011;38508;53.158;6.614;2022-12-20T07:17:24;106.55;;;101.20;;
52614;SDS011;38508;53.158;6.614;2022-12-20T07:19:49;109.47;;;103.65;;
52614;SDS011;38508;53.158;6.614;2022-12-20T07:22:15;110.75;;;104.97;;
52614;SDS011;38508;53.158;6.614;2022-12-20T07:24:41;113.57;;;107.38;;
52614;SDS011;38508;53.158;6.614;2022-12-20T07:27:07;112.68;;;106.65;;
52614;SDS011;38508;53.158;6.614;2022-12-20T07:29:34;115.18;;;109.35;;
52614;SDS011;38508;53.158;6.614;2022-12-20T07:32:00;117.63;;;111.50;;
52614;SDS011;38508;53.158;6.614;2022-12-20T07:34:26;112.13;;;106.32;;
52614;SDS011;38508;53.158;6.614;2022-12-20T07:36:52;110.07;;;104.30;;
52614;SDS011;38508;53.158;6.614;2022-12-20T07:39:21;109.80;;;103.78;;
52614;SDS011;38508;53.158;6.614;2022-12-20T07:41:46;103.10;;;97.45;;
52614;SDS011;38508;53.158;6.614;2022-12-20T07:44:12;103.65;;;98.35;;
52614;SDS011;38508;53.158;6.614;2022-12-20T07:46:38;103.72;;;98.07;;
52614;SDS011;38508;53.158;6.614;2022-12-20T07:49:03;107.15;;;101.53;;
52614;SDS011;38508;53.158;6.614;2022-12-20T07:51:30;105.18;;;99.28;;
52614;SDS011;38508;53.158;6.614;2022-12-20T07:54:12;108.22;;;102.32;;
52614;SDS011;38508;53.158;6.614;2022-12-20T07:56:45;101.93;;;96.63;;
52614;SDS011;38508;53.158;6.614;2022-12-20T07:59:15;107.80;;;102.30;;
52614;SDS011;38508;53.158;6.614;2022-12-20T08:01:44;108.53;;;102.53;;
52614;SDS011;38508;53.158;6.614;2022-12-20T08:04:15;109.38;;;103.78;;
52614;SDS011;38508;53.158;6.614;2022-12-20T08:06:45;109.82;;;103.90;;
52614;SDS011;38508;53.158;6.614;2022-12-20T08:09:12;106.32;;;100.78;;
52614;SDS011;38508;53.158;6.614;2022-12-20T08:11:39;109.03;;;103.07;;
52614;SDS011;38508;53.158;6.614;2022-12-20T08:14:08;103.20;;;97.43;;
52614;SDS011;38508;53.158;6.614;2022-12-20T08:16:35;103.72;;;98.40;;
52614;SDS011;38508;53.158;6.614;2022-12-20T08:19:00;103.45;;;98.05;;
52614;SDS011;38508;53.158;6.614;2022-12-20T08:21:26;105.00;;;99.55;;
52614;SDS011;38508;53.158;6.614;2022-12-20T08:23:53;102.05;;;96.50;;
52614;SDS011;38508;53.158;6.614;2022-12-20T08:26:18;102.22;;;96.55;;
52614;SDS011;38508;53.158;6.614;2022-12-20T08:28:44;99.45;;;94.32;;
52614;SDS011;38508;53.158;6.614;2022-12-20T08:31:10;98.75;;;93.38;;
52614;SDS011;38508;53.158;6.614;2022-12-20T08:33:37;95.30;;;90.35;;
52614;SDS011;38508;53.158;6.614;2022-12-20T08:36:05;90.25;;;85.25;;
52614;SDS011;38508;53.158;6.614;2022-12-20T08:38:33;89.18;;;84.40;;
52614;SDS011;38508;53.158;6.614;2022-12-20T08:41:09;87.15;;;82.65;;
52614;SDS011;38508;53.158;6.614;2022-12-20T08:43:37;83.13;;;78.50;;
52614;SDS011;38508;53.158;6.614;2022-12-20T08:46:04;86.25;;;81.72;;
52614;SDS011;38508;53.158;6.614;2022-12-20T08:48:31;84.50;;;79.95;;
52614;SDS011;38508;53.158;6.614;2022-12-20T08:50:58;82.50;;;78.18;;
52614;SDS011;38508;53.158;6.614;2022-12-20T08:53:26;74.22;;;70.43;;
52614;SDS011;38508;53.158;6.614;2022-12-20T08:55:52;75.07;;;70.75;;
52614;SDS011;38508;53.158;6.614;2022-12-20T08:58:18;71.10;;;67.18;;
52614;SDS011;38508;53.158;6.614;2022-12-20T09:00:45;70.80;;;66.90;;
52614;SDS011;38508;53.158;6.614;2022-12-20T09:03:11;69.22;;;65.47;;
52614;SDS011;38508;53.158;6.614;2022-12-20T09:05:46;69.85;;;65.53;;
52614;SDS011;38508;53.158;6.614;2022-12-20T09:08:13;64.32;;;60.20;;
52614;SDS011;38508;53.158;6.614;2022-12-20T09:10:40;60.20;;;57.08;;
52614;SDS011;38508;53.158;6.614;2022-12-20T09:13:06;57.97;;;54.97;;
52614;SDS011;38508;53.158;6.614;2022-12-20T09:15:33;56.58;;;53.47;;
52614;SDS011;38508;53.158;6.614;2022-12-20T09:17:59;57.88;;;54.63;;
52614;SDS011;38508;53.158;6.614;2022-12-20T09:20:26;52.17;;;49.17;;
52614;SDS011;38508;53.158;6.614;2022-12-20T09:22:52;51.33;;;48.53;;
52614;SDS011;38508;53.158;6.614;2022-12-20T09:25:18;52.60;;;49.60;;
52614;SDS011;38508;53.158;6.614;2022-12-20T09:27:44;51.40;;;48.25;;
52614;SDS011;38508;53.158;6.614;2022-12-20T09:30:10;48.22;;;45.53;;
52614;SDS011;38508;53.158;6.614;2022-12-20T09:32:36;47.90;;;45.10;;
52614;SDS011;38508;53.158;6.614;2022-12-20T09:35:02;46.33;;;43.83;;
52614;SDS011;38508;53.158;6.614;2022-12-20T09:37:29;46.22;;;43.83;;
52614;SDS011;38508;53.158;6.614;2022-12-20T09:39:56;47.95;;;44.50;;
52614;SDS011;38508;53.158;6.614;2022-12-20T09:42:23;41.90;;;39.10;;
52614;SDS011;38508;53.158;6.614;2022-12-20T09:44:51;46.30;;;43.75;;
52614;SDS011;38508;53.158;6.614;2022-12-20T09:47:22;45.55;;;43.05;;
52614;SDS011;38508;53.158;6.614;2022-12-20T09:49:50;43.90;;;41.38;;
52614;SDS011;38508;53.158;6.614;2022-12-20T09:58:04;42.42;;;40.15;;
52614;SDS011;38508;53.158;6.614;2022-12-20T10:00:52;42.40;;;40.05;;
52614;SDS011;38508;53.158;6.614;2022-12-20T10:03:30;45.53;;;43.03;;
52614;SDS011;38508;53.158;6.614;2022-12-20T10:06:03;42.22;;;39.60;;
52614;SDS011;38508;53.158;6.614;2022-12-20T10:08:58;45.30;;;42.90;;
52614;SDS011;38508;53.158;6.614;2022-12-20T10:20:45;45.15;;;42.33;;
52614;SDS011;38508;53.158;6.614;2022-12-20T10:26:24;44.97;;;42.47;;
52614;SDS011;38508;53.158;6.614;2022-12-20T10:28:50;45.70;;;43.13;;
52614;SDS011;38508;53.158;6.614;2022-12-20T10:31:16;53.60;;;50.40;;
52614;SDS011;38508;53.158;6.614;2022-12-20T10:33:42;50.00;;;47.50;;
52614;SDS011;38508;53.158;6.614;2022-12-20T10:36:42;48.13;;;45.33;;
52614;SDS011;38508;53.158;6.614;2022-12-20T10:39:08;47.17;;;44.25;;
52614;SDS011;38508;53.158;6.614;2022-12-20T10:46:53;45.47;;;42.97;;
52614;SDS011;38508;53.158;6.614;2022-12-20T10:49:31;48.17;;;45.38;;
52614;SDS011;38508;53.158;6.614;2022-12-20T10:52:00;55.25;;;52.17;;
52614;SDS011;38508;53.158;6.614;2022-12-20T10:57:03;52.15;;;49.35;;
52614;SDS011;38508;53.158;6.614;2022-12-20T10:59:54;55.03;;;51.92;;
52614;SDS011;38508;53.158;6.614;2022-12-20T11:05:00;51.53;;;48.72;;
52614;SDS011;38508;53.158;6.614;2022-12-20T11:07:30;52.40;;;49.60;;
52614;SDS011;38508;53.158;6.614;2022-12-20T11:10:16;56.47;;;53.17;;
52614;SDS011;38508;53.158;6.614;2022-12-20T11:13:03;54.55;;;51.22;;
52614;SDS011;38508;53.158;6.614;2022-12-20T11:15:30;56.42;;;53.35;;
52614;SDS011;38508;53.158;6.614;2022-12-20T11:17:58;61.38;;;57.97;;
52614;SDS011;38508;53.158;6.614;2022-12-20T11:20:42;55.35;;;52.42;;
52614;SDS011;38508;53.158;6.614;2022-12-20T11:26:53;66.57;;;63.00;;
52614;SDS011;38508;53.158;6.614;2022-12-20T11:37:55;68.65;;;64.55;;
52614;SDS011;38508;53.158;6.614;2022-12-20T11:54:28;78.82;;;74.80;;
52614;SDS011;38508;53.158;6.614;2022-12-20T11:57:03;78.45;;;74.18;;
52614;SDS011;38508;53.158;6.614;2022-12-20T11:59:40;79.10;;;75.00;;
52614;SDS011;38508;53.158;6.614;2022-12-20T12:04:48;81.00;;;76.75;;
52614;SDS011;38508;53.158;6.614;2022-12-20T12:07:24;82.03;;;77.72;;
52614;SDS011;38508;53.158;6.614;2022-12-20T12:12:52;87.78;;;82.88;;
52614;SDS011;38508;53.158;6.614;2022-12-20T12:15:45;87.05;;;82.47;;
52614;SDS011;38508;53.158;6.614;2022-12-20T12:18:17;89.75;;;85.00;;
52614;SDS011;38508;53.158;6.614;2022-12-20T12:26:01;96.50;;;91.30;;
52614;SDS011;38508;53.158;6.614;2022-12-20T12:28:42;95.78;;;90.88;;
52614;SDS011;38508;53.158;6.614;2022-12-20T12:31:17;99.43;;;94.32;;
52614;SDS011;38508;53.158;6.614;2022-12-20T12:34:05;97.72;;;92.78;;
52614;SDS011;38508;53.158;6.614;2022-12-20T12:37:09;99.68;;;94.47;;
52614;SDS011;38508;53.158;6.614;2022-12-20T12:45:42;98.93;;;93.83;;
52614;SDS011;38508;53.158;6.614;2022-12-20T12:48:17;99.75;;;94.43;;
52614;SDS011;38508;53.158;6.614;2022-12-20T12:50:52;101.00;;;95.70;;
52614;SDS011;38508;53.158;6.614;2022-12-20T12:53:34;98.82;;;93.85;;
52614;SDS011;38508;53.158;6.614;2022-12-20T13:11:51;93.35;;;88.53;;
52614;SDS011;38508;53.158;6.614;2022-12-20T13:16:50;97.75;;;92.55;;
52614;SDS011;38508;53.158;6.614;2022-12-20T13:21:52;98.50;;;93.40;;
52614;SDS011;38508;53.158;6.614;2022-12-20T13:27:15;94.93;;;89.75;;
52614;SDS011;38508;53.158;6.614;2022-12-20T13:35:31;96.10;;;90.88;;
52614;SDS011;38508;53.158;6.614;2022-12-20T13:40:37;94.30;;;89.15;;
52614;SDS011;38508;53.158;6.614;2022-12-20T13:48:25;99.07;;;93.18;;
52614;SDS011;38508;53.158;6.614;2022-12-20T13:50:54;96.60;;;90.82;;
52614;SDS011;38508;53.158;6.614;2022-12-20T13:53:25;97.70;;;92.50;;
52614;SDS011;38508;53.158;6.614;2022-12-20T13:55:52;99.38;;;93.97;;
52614;SDS011;38508;53.158;6.614;2022-12-20T13:58:19;100.78;;;95.07;;
52614;SDS011;38508;53.158;6.614;2022-12-20T14:01:04;101.68;;;95.97;;
52614;SDS011;38508;53.158;6.614;2022-12-20T14:03:33;102.83;;;97.13;;
52614;SDS011;38508;53.158;6.614;2022-12-20T14:06:09;103.68;;;98.00;;
52614;SDS011;38508;53.158;6.614;2022-12-20T14:08:38;102.40;;;97.05;;
52614;SDS011;38508;53.158;6.614;2022-12-20T14:13:49;105.50;;;99.80;;
52614;SDS011;38508;53.158;6.614;2022-12-20T14:16:20;105.60;;;99.85;;
52614;SDS011;38508;53.158;6.614;2022-12-20T14:18:48;104.50;;;98.60;;
52614;SDS011;38508;53.158;6.614;2022-12-20T14:21:34;97.38;;;91.72;;
52614;SDS011;38508;53.158;6.614;2022-12-20T14:24:03;97.60;;;92.15;;
52614;SDS011;38508;53.158;6.614;2022-12-20T14:26:36;103.40;;;97.80;;
52614;SDS011;38508;53.158;6.614;2022-12-20T14:29:11;101.25;;;95.57;;
52614;SDS011;38508;53.158;6.614;2022-12-20T14:31:43;100.18;;;94.43;;
52614;SDS011;38508;53.158;6.614;2022-12-20T14:36:41;100.40;;;94.82;;
52614;SDS011;38508;53.158;6.614;2022-12-20T14:39:25;101.88;;;95.65;;
52614;SDS011;38508;53.158;6.614;2022-12-20T14:42:02;98.50;;;92.55;;
52614;SDS011;38508;53.158;6.614;2022-12-20T14:44:37;105.80;;;99.13;;
52614;SDS011;38508;53.158;6.614;2022-12-20T14:47:21;105.07;;;98.95;;
52614;SDS011;38508;53.158;6.614;2022-12-20T14:49:56;101.95;;;95.40;;
52614;SDS011;38508;53.158;6.614;2022-12-20T14:52:27;101.90;;;95.80;;
52614;SDS011;38508;53.158;6.614;2022-12-20T14:55:06;103.15;;;96.82;;
52614;SDS011;38508;53.158;6.614;2022-12-20T14:57:39;104.40;;;98.03;;
52614;SDS011;38508;53.158;6.614;2022-12-20T15:00:20;102.32;;;96.45;;
52614;SDS011;38508;53.158;6.614;2022-12-20T15:05:45;101.93;;;95.63;;
52614;SDS011;38508;53.158;6.614;2022-12-20T15:13:36;107.35;;;100.22;;
52614;SDS011;38508;53.158;6.614;2022-12-20T15:18:44;106.60;;;99.07;;
52614;SDS011;38508;53.158;6.614;2022-12-20T15:21:13;103.25;;;95.90;;
52614;SDS011;38508;53.158;6.614;2022-12-20T15:23:47;103.40;;;96.25;;
52614;SDS011;38508;53.158;6.614;2022-12-20T15:26:16;104.47;;;97.38;;
52614;SDS011;38508;53.158;6.614;2022-12-20T15:28:43;106.15;;;98.95;;
52614;SDS011;38508;53.158;6.614;2022-12-20T15:31:10;106.78;;;99.18;;
52614;SDS011;38508;53.158;6.614;2022-12-20T15:33:37;106.55;;;99.05;;
52614;SDS011;38508;53.158;6.614;2022-12-20T15:36:05;105.47;;;97.82;;
52614;SDS011;38508;53.158;6.614;2022-12-20T15:38:31;104.05;;;96.80;;
52614;SDS011;38508;53.158;6.614;2022-12-20T15:40:59;103.43;;;95.93;;
52614;SDS011;38508;53.158;6.614;2022-12-20T15:43:28;105.82;;;97.93;;
52614;SDS011;38508;53.158;6.614;2022-12-20T15:46:03;105.00;;;97.72;;
52614;SDS011;38508;53.158;6.614;2022-12-20T15:48:29;106.57;;;98.93;;
52614;SDS011;38508;53.158;6.614;2022-12-20T15:50:55;105.70;;;98.03;;
52614;SDS011;38508;53.158;6.614;2022-12-20T15:53:32;101.95;;;94.80;;
52614;SDS011;38508;53.158;6.614;2022-12-20T15:55:58;106.60;;;98.33;;
52614;SDS011;38508;53.158;6.614;2022-12-20T15:58:25;105.07;;;97.63;;
52614;SDS011;38508;53.158;6.614;2022-12-20T16:00:52;103.97;;;96.95;;
52614;SDS011;38508;53.158;6.614;2022-12-20T16:03:23;103.82;;;96.90;;
52614;SDS011;38508;53.158;6.614;2022-12-20T16:05:56;107.90;;;99.47;;
52614;SDS011;38508;53.158;6.614;2022-12-20T16:08:22;102.90;;;95.65;;
52614;SDS011;38508;53.158;6.614;2022-12-20T16:10:48;105.88;;;98.13;;
52614;SDS011;38508;53.158;6.614;2022-12-20T16:13:19;102.25;;;94.45;;
52614;SDS011;38508;53.158;6.614;2022-12-20T16:15:46;111.20;;;102.82;;
52614;SDS011;38508;53.158;6.614;2022-12-20T16:18:12;111.07;;;102.55;;
52614;SDS011;38508;53.158;6.614;2022-12-20T16:20:38;110.78;;;102.18;;
52614;SDS011;38508;53.158;6.614;2022-12-20T16:23:04;110.30;;;101.15;;
52614;SDS011;38508;53.158;6.614;2022-12-20T16:25:37;111.25;;;101.72;;
52614;SDS011;38508;53.158;6.614;2022-12-20T16:28:03;112.20;;;102.97;;
52614;SDS011;38508;53.158;6.614;2022-12-20T16:30:29;113.60;;;103.97;;
52614;SDS011;38508;53.158;6.614;2022-12-20T16:32:55;111.50;;;101.20;;
52614;SDS011;38508;53.158;6.614;2022-12-20T16:35:33;112.55;;;101.75;;
52614;SDS011;38508;53.158;6.614;2022-12-20T16:38:02;111.05;;;100.15;;
52614;SDS011;38508;53.158;6.614;2022-12-20T16:40:31;113.68;;;102.45;;
52614;SDS011;38508;53.158;6.614;2022-12-20T16:42:57;105.78;;;95.45;;
52614;SDS011;38508;53.158;6.614;2022-12-20T16:45:24;110.65;;;98.72;;